Aviation Digital Data Service (ADDS)

Output produced by METARs form (2216 UTC 23 April 2019)
found at http://www.aviationweather.gov/metar/data/
 
TAF CYYZ 232051Z 2321/2424 24012G22KT P6SM OVC025 
     TEMPO 2321/2403 OVC020 
     BECMG 2321/2323 27020G35KT 
     FM240300 30015G25KT P6SM OVC025 
     BECMG 2404/2406 30015KT 
     FM241500 30015KT P6SM SCT030 
     BECMG 2421/2423 31010KT RMK NXT FCST BY 240000Z